Bentonville, AR

10:09 PM CDT on August 23, 2016 (GMT -0500)
| | Change Station

Elev -9999 ft 0.00 °N, 0.00 °E | Updated

Partly Cloudy
Partly Cloudy
77 °F
Feels Like 77 °F
N
11
Wind Variable Wind from SSW
Gusts 19 mph

Today
High -- | Low -- °F
--% Chance of Precip.
Yesterday
High -- | Low -- °F
Precip. -- in
Pressure 30.08 in
Visibility 10.0 miles
Clouds Clear
Dew Point 68 °F
Humidity 75%
Rainfall --
Snow Depth Not available.
6:41 AM 7:56 PM
Waning Gibbous, 62% visible
METAR KVBT 240255Z AUTO 18009KT 10SM CLR 26/19 A3008 RMK AO1 52003
Pressure 30.08 in
Visibility 10.0 miles
Clouds Clear
Dew Point 68 °F
Humidity 75%
Rainfall --
Snow Depth Not available.
6:41 AM 7:56 PM
Waning Gibbous, 62% visible
METAR KVBT 240255Z AUTO 18009KT 10SM CLR 26/19 A3008 RMK AO1 52003

10-Day Weather Forecast

Almanac

Astronomy

Aug. 23, 2016 Rise Set
Actual Time
Civil Twilight
Nautical Twilight
Astronomical Twilight
Moon
Length of Visible Light
Length of Day
Tomorrow will be .
, % of the Moon is Illuminated

Today's Extremes

State Highs State Lows

Community

WunderPhotos

Upload Photos

1,934,538 photos uploaded!

WunderBlog® & News

Nearby

Air Quality

  Air Quality AQ Index Pollutant
Not available.

Snow Depth

Station Depth Elevation

Earthquake Activity

City Distance Mag. Time & Date
Minimum magnitude displayed is 2.5.

Coastal Water Temperatures

Place Temperature

Stations

Nearby Weather Stations

Station Location Temp. Windchill Dew Point Humidity Wind Precip. Elev Updated Type
                   

Watches & Warnings

There are currently no watches in effect.